createdAt,value
2024-01-12T00:00:41.431Z,0
2024-01-12T00:01:50.640Z,0
2024-01-12T00:03:00.069Z,0
2024-01-12T00:04:09.066Z,0
2024-01-12T00:05:18.108Z,0
2024-01-12T00:06:27.348Z,0
2024-01-12T00:07:36.649Z,0
2024-01-12T00:08:45.918Z,0
2024-01-12T00:09:54.839Z,0
2024-01-12T00:11:04.311Z,0
2024-01-12T00:12:13.462Z,0
2024-01-12T00:13:21.709Z,0
2024-01-12T00:14:30.603Z,0
2024-01-12T00:15:39.875Z,0
2024-01-12T00:16:49.211Z,0
2024-01-12T00:17:58.079Z,0
2024-01-12T00:19:07.394Z,0
2024-01-12T00:20:16.450Z,0
2024-01-12T00:21:25.879Z,0
2024-01-12T00:22:34.792Z,0
2024-01-12T00:23:43.992Z,0
2024-01-12T00:24:53.420Z,0
2024-01-12T00:26:02.565Z,0
2024-01-12T00:27:11.651Z,0
2024-01-12T00:28:19.957Z,0
2024-01-12T00:29:28.804Z,0
2024-01-12T00:30:37.980Z,0
2024-01-12T00:31:47.466Z,0
2024-01-12T00:32:56.656Z,0
2024-01-12T00:34:05.489Z,0
2024-01-12T00:35:14.678Z,0
2024-01-12T00:36:24.137Z,0
2024-01-12T00:37:33.246Z,0
2024-01-12T00:38:42.463Z,0
2024-01-12T00:39:51.590Z,0
2024-01-12T00:41:00.519Z,0
2024-01-12T00:42:10.057Z,0
2024-01-12T00:43:18.154Z,0
2024-01-12T00:44:27.172Z,0
2024-01-12T00:45:36.341Z,0
2024-01-12T00:46:45.677Z,0
2024-01-12T00:47:54.926Z,0
2024-01-12T00:49:03.929Z,0
2024-01-12T00:50:13.162Z,0
2024-01-12T00:51:22.450Z,0
2024-01-12T00:52:31.460Z,0
2024-01-12T00:53:40.589Z,0
2024-01-12T00:54:49.942Z,0
2024-01-12T00:55:59.132Z,0
2024-01-12T00:57:08.094Z,0
2024-01-12T00:58:16.543Z,0
2024-01-12T00:59:25.404Z,0
2024-01-12T01:00:34.624Z,0
2024-01-12T01:01:43.884Z,0
2024-01-12T01:02:53.054Z,0
2024-01-12T01:04:02.395Z,0
2024-01-12T01:05:11.474Z,0
2024-01-12T01:06:20.689Z,0
2024-01-12T01:07:29.561Z,0
2024-01-12T01:08:38.773Z,0
2024-01-12T01:09:47.884Z,0
2024-01-12T01:10:57.210Z,0
2024-01-12T01:12:06.357Z,0
2024-01-12T01:13:14.427Z,0
2024-01-12T01:14:23.791Z,0
2024-01-12T01:15:32.809Z,0
2024-01-12T01:16:42.263Z,0
2024-01-12T01:17:51.330Z,0
2024-01-12T01:19:00.422Z,0
2024-01-12T01:20:09.465Z,0
2024-01-12T01:21:18.801Z,0
2024-01-12T01:22:27.914Z,0
2024-01-12T01:23:37.216Z,0
2024-01-12T01:24:46.455Z,0
2024-01-12T01:25:55.439Z,0
2024-01-12T01:27:04.689Z,0
2024-01-12T01:28:12.981Z,0
2024-01-12T01:29:21.947Z,0
2024-01-12T01:30:31.319Z,0
2024-01-12T01:31:40.345Z,0
2024-01-12T01:32:49.500Z,0
2024-01-12T01:33:58.810Z,0
2024-01-12T01:35:07.934Z,0
2024-01-12T01:36:17.149Z,0
2024-01-12T01:37:26.405Z,0
2024-01-12T01:38:35.301Z,0
2024-01-12T01:39:44.793Z,0
2024-01-12T01:40:53.586Z,0
2024-01-12T01:42:03.135Z,0
2024-01-12T01:43:11.196Z,0
2024-01-12T01:44:20.318Z,0
2024-01-12T01:45:29.437Z,0
2024-01-12T01:46:38.472Z,0
2024-01-12T01:47:47.898Z,0
2024-01-12T01:48:57.023Z,0
2024-01-12T01:50:06.274Z,0
2024-01-12T01:51:15.451Z,0
2024-01-12T01:52:24.641Z,0
2024-01-12T01:53:33.768Z,0
2024-01-12T01:54:42.884Z,0
2024-01-12T01:55:52.126Z,0
2024-01-12T01:57:01.313Z,0
2024-01-12T01:58:09.383Z,0
2024-01-12T01:59:18.646Z,0
2024-01-12T02:00:27.722Z,0
2024-01-12T02:01:36.932Z,0
2024-01-12T02:02:46.230Z,0
2024-01-12T02:03:54.222Z,0
2024-01-12T02:05:03.386Z,0
2024-01-12T02:06:12.600Z,0
2024-01-12T02:07:21.687Z,0
2024-01-12T02:08:30.952Z,0
2024-01-12T02:09:39.973Z,0
2024-01-12T02:10:49.140Z,0
2024-01-12T02:11:58.494Z,0
2024-01-12T02:13:07.788Z,0
2024-01-12T02:14:16.662Z,0
2024-01-12T02:15:25.990Z,0
2024-01-12T02:16:35.061Z,0
2024-01-12T02:17:44.181Z,0
2024-01-12T02:18:52.495Z,0
2024-01-12T02:20:01.891Z,0
2024-01-12T02:21:10.904Z,0
2024-01-12T02:22:19.938Z,0
2024-01-12T02:23:29.103Z,0
2024-01-12T02:24:38.520Z,0
2024-01-12T02:25:47.408Z,0
2024-01-12T02:26:56.695Z,0
2024-01-12T02:28:05.765Z,0
2024-01-12T02:29:14.933Z,0
2024-01-12T02:30:24.178Z,0
2024-01-12T02:31:33.375Z,0
2024-01-12T02:32:42.564Z,0
2024-01-12T02:33:50.636Z,0
2024-01-12T02:35:00.119Z,0
2024-01-12T02:36:09.176Z,0
2024-01-12T02:37:18.315Z,0
2024-01-12T02:38:27.317Z,0
2024-01-12T02:39:36.510Z,0
2024-01-12T02:40:45.879Z,0
2024-01-12T02:41:55.120Z,0
2024-01-12T02:43:04.008Z,0
2024-01-12T02:44:13.402Z,0
2024-01-12T02:45:22.441Z,0
2024-01-12T02:46:31.872Z,0
2024-01-12T02:47:40.841Z,0
2024-01-12T02:48:49.055Z,0
2024-01-12T02:49:58.215Z,0
2024-01-12T02:51:07.350Z,0
2024-01-12T02:52:16.636Z,0
2024-01-12T02:53:25.641Z,0
2024-01-12T02:54:34.861Z,0
2024-01-12T02:55:44.188Z,0
2024-01-12T02:56:53.121Z,0
2024-01-12T02:58:02.274Z,0
2024-01-12T02:59:11.514Z,0
2024-01-12T03:00:20.686Z,0
2024-01-12T03:01:29.840Z,0
2024-01-12T03:02:39.006Z,0
2024-01-12T03:03:47.175Z,0
2024-01-12T03:04:56.636Z,0
2024-01-12T03:06:05.758Z,0
2024-01-12T03:07:14.685Z,0
2024-01-12T03:08:24.039Z,0
2024-01-12T03:09:33.253Z,0
2024-01-12T03:10:42.569Z,0
2024-01-12T03:11:51.417Z,0
2024-01-12T03:13:00.730Z,0
2024-01-12T03:15:19.202Z,0
2024-01-12T03:16:28.401Z,0
2024-01-12T03:17:37.250Z,0
2024-01-12T03:18:45.712Z,0
2024-01-12T03:19:54.621Z,0
2024-01-12T03:21:04.144Z,0
2024-01-12T03:22:13.289Z,0
2024-01-12T03:23:22.429Z,0
2024-01-12T03:24:31.637Z,0
2024-01-12T03:25:40.905Z,0
2024-01-12T03:26:49.936Z,0
2024-01-12T03:27:59.190Z,0
2024-01-12T03:29:08.332Z,0
2024-01-12T03:30:17.619Z,0
2024-01-12T03:31:26.651Z,0
2024-01-12T03:32:35.935Z,0
2024-01-12T03:33:43.956Z,0
2024-01-12T03:34:53.184Z,0
2024-01-12T03:36:02.370Z,0
2024-01-12T03:37:11.546Z,0
2024-01-12T03:38:20.731Z,0
2024-01-12T03:39:29.553Z,0
2024-01-12T03:40:39.060Z,0
2024-01-12T03:41:48.262Z,0
2024-01-12T03:42:57.457Z,0
2024-01-12T03:44:06.272Z,0
2024-01-12T03:45:15.735Z,0
2024-01-12T03:46:24.915Z,0
2024-01-12T03:47:34.172Z,0
2024-01-12T03:48:42.337Z,0
2024-01-12T03:49:51.478Z,0
2024-01-12T03:51:00.341Z,0
2024-01-12T03:52:09.791Z,0
2024-01-12T03:53:18.902Z,0
2024-01-12T03:54:28.154Z,0
2024-01-12T03:55:37.366Z,0
2024-01-12T03:56:46.177Z,0
2024-01-12T03:57:55.648Z,0
2024-01-12T03:59:04.921Z,0
2024-01-12T04:00:14.026Z,0
2024-01-12T04:01:23.301Z,0
2024-01-12T04:02:32.401Z,0
2024-01-12T04:03:40.571Z,0
2024-01-12T04:04:49.824Z,0
2024-01-12T04:05:58.875Z,0
2024-01-12T04:07:08.029Z,0
2024-01-12T04:08:17.325Z,0
2024-01-12T04:09:26.505Z,0
2024-01-12T04:10:35.467Z,0
2024-01-12T04:11:44.833Z,0
2024-01-12T04:12:53.923Z,0
2024-01-12T04:14:03.093Z,0
2024-01-12T04:15:12.086Z,0
2024-01-12T04:16:21.282Z,0
2024-01-12T04:17:30.576Z,0
2024-01-12T04:18:38.856Z,0
2024-01-12T04:19:48.004Z,0
2024-01-12T04:20:57.147Z,0
2024-01-12T04:22:06.304Z,0
2024-01-12T04:23:15.461Z,0
2024-01-12T04:24:24.649Z,0
2024-01-12T04:25:33.594Z,0
2024-01-12T04:26:43.041Z,0
2024-01-12T04:27:52.142Z,0
2024-01-12T04:29:01.399Z,0
2024-01-12T04:30:10.571Z,0
2024-01-12T04:31:19.725Z,0
2024-01-12T04:32:28.910Z,0
2024-01-12T04:33:37.120Z,0
2024-01-12T04:34:45.929Z,0
2024-01-12T04:35:55.321Z,0
2024-01-12T04:37:04.588Z,0
2024-01-12T04:38:13.649Z,0
2024-01-12T04:39:22.931Z,0
2024-01-12T04:40:32.174Z,0
2024-01-12T04:41:41.280Z,0
2024-01-12T04:42:50.152Z,0
2024-01-12T04:43:59.643Z,0
2024-01-12T04:45:08.549Z,0
2024-01-12T04:46:17.916Z,0
2024-01-12T04:47:27.206Z,0
2024-01-12T04:48:35.395Z,0
2024-01-12T04:49:44.582Z,0
2024-01-12T04:50:53.384Z,0
2024-01-12T04:52:02.953Z,0
2024-01-12T04:53:12.062Z,0
2024-01-12T04:54:21.213Z,0
2024-01-12T04:55:30.453Z,0
2024-01-12T04:56:39.540Z,0
2024-01-12T04:57:48.731Z,0
2024-01-12T04:58:57.573Z,0
2024-01-12T05:00:06.945Z,0
2024-01-12T05:01:16.340Z,0
2024-01-12T05:02:25.286Z,0
2024-01-12T05:03:33.638Z,0
2024-01-12T05:04:42.820Z,0
2024-01-12T05:05:51.653Z,0
2024-01-12T05:07:01.109Z,0
2024-01-12T05:08:10.233Z,0
2024-01-12T05:09:19.570Z,0
2024-01-12T05:10:28.644Z,0
2024-01-12T05:11:37.803Z,0
2024-01-12T05:12:46.903Z,0
2024-01-12T05:13:56.022Z,0
2024-01-12T05:15:05.383Z,0
2024-01-12T05:16:14.445Z,0
2024-01-12T05:17:23.680Z,0
2024-01-12T05:18:31.906Z,0
2024-01-12T05:19:40.889Z,0
2024-01-12T05:20:50.100Z,0
2024-01-12T05:21:59.373Z,0
2024-01-12T05:23:08.562Z,0
2024-01-12T05:24:17.842Z,0
2024-01-12T05:25:27.009Z,0
2024-01-12T05:26:36.105Z,0
2024-01-12T05:27:45.250Z,0
2024-01-12T05:28:54.465Z,0
2024-01-12T05:30:03.439Z,0
2024-01-12T05:31:12.868Z,0
2024-01-12T05:32:22.002Z,0
2024-01-12T05:33:30.012Z,0
2024-01-12T05:34:39.186Z,0
2024-01-12T05:35:48.386Z,0
2024-01-12T05:36:57.457Z,0
2024-01-12T05:38:06.858Z,0
2024-01-12T05:39:16.027Z,0
2024-01-12T05:40:25.250Z,0
2024-01-12T05:41:34.288Z,0
2024-01-12T05:42:43.580Z,0
2024-01-12T05:43:52.691Z,0
2024-01-12T05:45:01.566Z,0
2024-01-12T05:46:10.996Z,0
2024-01-12T05:47:20.329Z,0
2024-01-12T05:48:28.377Z,0
2024-01-12T05:49:37.493Z,0
2024-01-12T05:50:46.445Z,0
2024-01-12T05:51:55.817Z,0
2024-01-12T05:53:04.793Z,0
2024-01-12T05:54:14.235Z,0
2024-01-12T05:55:22.473Z,0
2024-01-12T05:56:31.616Z,0
2024-01-12T05:57:40.919Z,0
2024-01-12T05:58:49.771Z,0
2024-01-12T05:59:59.097Z,0
2024-01-12T06:01:08.387Z,0
2024-01-12T06:02:17.559Z,0
2024-01-12T06:03:26.642Z,0
2024-01-12T06:04:35.876Z,0
2024-01-12T06:05:45.112Z,0
2024-01-12T06:06:54.244Z,0
2024-01-12T06:08:03.258Z,0
2024-01-12T06:09:12.256Z,0
2024-01-12T06:10:20.700Z,0
2024-01-12T06:11:29.876Z,0
2024-01-12T06:12:39.027Z,0
2024-01-12T06:13:48.314Z,0
2024-01-12T06:14:57.400Z,0
2024-01-12T06:16:06.646Z,0
2024-01-12T06:17:15.809Z,0
2024-01-12T06:18:24.901Z,0
2024-01-12T06:19:34.130Z,0
2024-01-12T06:20:43.226Z,0
2024-01-12T06:21:52.459Z,0
2024-01-12T06:23:01.678Z,0
2024-01-12T06:24:10.831Z,0
2024-01-12T06:25:19.012Z,0
2024-01-12T06:26:28.180Z,0
2024-01-12T06:27:37.276Z,0
2024-01-12T06:28:46.526Z,0
2024-01-12T06:29:55.721Z,0
2024-01-12T06:31:04.567Z,0
2024-01-12T06:32:13.982Z,0
2024-01-12T06:33:23.139Z,0
2024-01-12T06:34:32.371Z,0
2024-01-12T06:35:41.312Z,0
2024-01-12T06:36:50.789Z,0
2024-01-12T06:37:59.851Z,0
2024-01-12T06:39:09.142Z,0
2024-01-12T06:40:17.210Z,0
2024-01-12T06:41:26.336Z,0
2024-01-12T06:42:35.663Z,0
2024-01-12T06:43:44.840Z,0
2024-01-12T06:44:53.930Z,0
2024-01-12T06:46:03.211Z,0
2024-01-12T06:47:12.247Z,0
2024-01-12T06:48:21.368Z,0
2024-01-12T06:49:30.645Z,0
2024-01-12T06:50:39.921Z,0
2024-01-12T06:51:48.745Z,0
2024-01-12T06:52:57.992Z,0
2024-01-12T06:54:07.345Z,0
2024-01-12T06:55:15.532Z,0
2024-01-12T06:56:24.780Z,0
2024-01-12T06:57:33.861Z,0
2024-01-12T06:58:43.013Z,0
2024-01-12T06:59:52.140Z,0
2024-01-12T07:01:01.086Z,0
2024-01-12T07:02:10.469Z,0
2024-01-12T07:03:19.678Z,0
2024-01-12T07:04:28.891Z,0
2024-01-12T07:05:38.093Z,0
2024-01-12T07:06:47.161Z,0
2024-01-12T07:07:56.388Z,0
2024-01-12T07:09:05.639Z,0
2024-01-12T07:10:13.665Z,0
2024-01-12T07:11:23.060Z,0
2024-01-12T07:12:32.058Z,0
2024-01-12T07:13:41.117Z,0
2024-01-12T07:14:50.184Z,0
2024-01-12T07:15:59.376Z,0
2024-01-12T07:17:08.530Z,0
2024-01-12T07:18:17.704Z,0
2024-01-12T07:19:27.170Z,0
2024-01-12T07:20:36.306Z,0
2024-01-12T07:21:45.478Z,0
2024-01-12T07:22:54.600Z,0
2024-01-12T07:24:03.813Z,0
2024-01-12T07:25:12.106Z,0
2024-01-12T07:26:21.247Z,0
2024-01-12T07:27:30.421Z,0
2024-01-12T07:28:39.537Z,0
2024-01-12T07:29:48.767Z,0
2024-01-12T07:30:57.814Z,0
2024-01-12T07:32:06.801Z,0
2024-01-12T07:33:16.406Z,0
2024-01-12T07:34:25.453Z,0
2024-01-12T07:35:34.495Z,0
2024-01-12T07:36:43.496Z,0
2024-01-12T07:37:53.002Z,0
2024-01-12T07:39:01.983Z,0
2024-01-12T07:40:10.030Z,0
2024-01-12T07:41:19.479Z,0
2024-01-12T07:42:28.614Z,0
2024-01-12T07:43:37.940Z,0
2024-01-12T07:44:47.193Z,0
2024-01-12T07:45:56.098Z,0
2024-01-12T07:47:05.360Z,0
2024-01-12T07:48:14.531Z,0
2024-01-12T07:49:23.695Z,0
2024-01-12T07:50:32.942Z,0
2024-01-12T07:51:42.066Z,0
2024-01-12T07:52:51.226Z,0
2024-01-12T07:54:00.486Z,0
2024-01-12T07:55:08.601Z,0
2024-01-12T07:56:17.771Z,0
2024-01-12T07:57:26.957Z,0
2024-01-12T07:58:36.020Z,0
2024-01-12T07:59:45.098Z,0
2024-01-12T08:00:54.490Z,0
2024-01-12T08:02:03.637Z,0
2024-01-12T08:03:12.824Z,5
2024-01-12T08:04:22.018Z,5
2024-01-12T08:05:31.160Z,5
2024-01-12T08:06:40.325Z,5
2024-01-12T08:07:49.344Z,5
2024-01-12T08:08:58.494Z,5
2024-01-12T08:10:06.542Z,5
2024-01-12T08:11:16.047Z,5
2024-01-12T08:12:25.209Z,5
2024-01-12T08:13:34.415Z,5
2024-01-12T08:14:43.531Z,5
2024-01-12T08:15:52.796Z,5
2024-01-12T08:17:01.794Z,5
2024-01-12T08:18:11.024Z,5
2024-01-12T08:19:20.335Z,5
2024-01-12T08:20:29.377Z,5
2024-01-12T08:21:38.583Z,5
2024-01-12T08:22:47.715Z,5
2024-01-12T08:23:56.763Z,5
2024-01-12T08:25:05.989Z,5
2024-01-12T08:26:14.256Z,5
2024-01-12T08:27:23.196Z,5
2024-01-12T08:28:32.625Z,5
2024-01-12T08:29:41.634Z,11
2024-01-12T08:30:50.878Z,11
2024-01-12T08:32:00.105Z,5
2024-01-12T08:33:09.029Z,5
2024-01-12T08:34:18.195Z,11
2024-01-12T08:35:27.384Z,11
2024-01-12T08:36:36.863Z,11
2024-01-12T08:37:46.044Z,5
2024-01-12T08:38:55.196Z,5
2024-01-12T08:40:04.089Z,5
2024-01-12T08:41:12.589Z,5
2024-01-12T08:42:21.744Z,11
2024-01-12T08:43:30.978Z,11
2024-01-12T08:44:40.028Z,11
2024-01-12T08:45:49.139Z,11
2024-01-12T08:46:58.320Z,11
2024-01-12T08:48:07.304Z,11
2024-01-12T08:49:16.795Z,11
2024-01-12T08:50:25.689Z,11
2024-01-12T08:51:35.123Z,11
2024-01-12T08:52:44.256Z,11
2024-01-12T08:53:53.561Z,16
2024-01-12T08:55:02.615Z,16
2024-01-12T08:56:10.759Z,16
2024-01-12T08:57:19.754Z,16
2024-01-12T08:58:29.145Z,11
2024-01-12T08:59:38.392Z,16
2024-01-12T09:00:47.505Z,16
2024-01-12T09:01:56.742Z,16
2024-01-12T09:03:05.910Z,16
2024-01-12T09:04:15.064Z,16
2024-01-12T09:05:24.246Z,16
2024-01-12T09:06:33.453Z,22
2024-01-12T09:07:42.570Z,16
2024-01-12T09:08:51.717Z,22
2024-01-12T09:10:00.919Z,22
2024-01-12T09:11:09.088Z,16
2024-01-12T09:12:18.317Z,16
2024-01-12T09:13:27.499Z,16
2024-01-12T09:14:36.629Z,16
2024-01-12T09:15:45.778Z,16
2024-01-12T09:16:54.881Z,16
2024-01-12T09:18:04.291Z,16
2024-01-12T09:19:13.329Z,16
2024-01-12T09:21:31.701Z,22
2024-01-12T09:22:40.833Z,22
2024-01-12T09:23:49.826Z,22
2024-01-12T09:24:59.045Z,22
2024-01-12T09:26:07.424Z,22
2024-01-12T09:27:16.519Z,22
2024-01-12T09:28:25.489Z,22
2024-01-12T09:29:34.771Z,28
2024-01-12T09:30:44.229Z,28
2024-01-12T09:31:53.351Z,28
2024-01-12T09:33:02.466Z,28
2024-01-12T09:34:11.326Z,33
2024-01-12T09:35:20.577Z,39
2024-01-12T09:36:29.658Z,50
2024-01-12T09:37:39.206Z,50
2024-01-12T09:38:48.312Z,50
2024-01-12T09:39:57.427Z,50
2024-01-12T09:41:05.383Z,50
2024-01-12T09:42:14.826Z,56
2024-01-12T09:43:23.714Z,56
2024-01-12T09:44:33.128Z,50
2024-01-12T09:45:42.288Z,45
2024-01-12T09:46:50.249Z,45
2024-01-12T09:47:59.724Z,45
2024-01-12T09:49:08.868Z,39
2024-01-12T09:50:18.067Z,39
2024-01-12T09:51:26.951Z,56
2024-01-12T09:52:36.210Z,67
2024-01-12T09:53:45.303Z,61
2024-01-12T09:54:54.544Z,61
2024-01-12T09:56:03.632Z,67
2024-01-12T09:57:12.882Z,73
2024-01-12T09:58:22.131Z,73
2024-01-12T09:59:31.429Z,84
2024-01-12T10:00:40.705Z,84
2024-01-12T10:01:48.806Z,84
2024-01-12T10:02:57.868Z,84
2024-01-12T10:04:07.002Z,84
2024-01-12T10:05:16.273Z,84
2024-01-12T10:06:25.500Z,84
2024-01-12T10:07:34.826Z,84
2024-01-12T10:08:43.795Z,84
2024-01-12T10:09:53.077Z,67
2024-01-12T10:11:02.055Z,67
2024-01-12T10:12:11.399Z,67
2024-01-12T10:13:20.576Z,78
2024-01-12T10:14:29.680Z,84
2024-01-12T10:15:38.788Z,78
2024-01-12T10:16:46.908Z,67
2024-01-12T10:17:56.265Z,84
2024-01-12T10:19:05.269Z,101
2024-01-12T10:20:14.609Z,95
2024-01-12T10:21:23.801Z,84
2024-01-12T10:22:33.064Z,90
2024-01-12T10:23:42.124Z,101
2024-01-12T10:24:51.334Z,112
2024-01-12T10:26:00.387Z,112
2024-01-12T10:27:09.363Z,106
2024-01-12T10:28:18.801Z,106
2024-01-12T10:29:27.703Z,112
2024-01-12T10:30:37.128Z,112
2024-01-12T10:31:45.416Z,123
2024-01-12T10:32:54.572Z,129
2024-01-12T10:34:03.458Z,123
2024-01-12T10:35:12.916Z,118
2024-01-12T10:36:21.946Z,106
2024-01-12T10:37:31.286Z,95
2024-01-12T10:38:40.441Z,95
2024-01-12T10:39:49.595Z,95
2024-01-12T10:40:58.610Z,78
2024-01-12T10:42:07.856Z,67
2024-01-12T10:43:17.124Z,61
2024-01-12T10:44:26.096Z,45
2024-01-12T10:45:35.477Z,33
2024-01-12T10:46:43.678Z,39
2024-01-12T10:47:52.646Z,39
2024-01-12T10:49:01.990Z,39
2024-01-12T10:50:11.226Z,50
2024-01-12T10:51:20.007Z,61
2024-01-12T10:52:29.513Z,67
2024-01-12T10:53:38.629Z,67
2024-01-12T10:54:47.908Z,73
2024-01-12T10:55:56.930Z,78
2024-01-12T10:57:06.204Z,84
2024-01-12T10:58:15.252Z,78
2024-01-12T10:59:24.503Z,78
2024-01-12T11:00:33.688Z,78
2024-01-12T11:01:41.934Z,73
2024-01-12T11:02:51.024Z,67
2024-01-12T11:04:00.265Z,67
2024-01-12T11:05:09.125Z,67
2024-01-12T11:06:18.328Z,67
2024-01-12T11:07:27.568Z,56
2024-01-12T11:08:36.851Z,39
2024-01-12T11:09:46.094Z,39
2024-01-12T11:10:55.235Z,33
2024-01-12T11:12:04.278Z,39
2024-01-12T11:13:13.637Z,33
2024-01-12T11:14:22.705Z,39
2024-01-12T11:15:31.967Z,45
2024-01-12T11:16:39.990Z,45
2024-01-12T11:17:49.258Z,39
2024-01-12T11:18:58.379Z,39
2024-01-12T11:20:07.601Z,33
2024-01-12T11:21:16.550Z,33
2024-01-12T11:22:26.035Z,33
2024-01-12T11:23:35.211Z,28
2024-01-12T11:24:44.173Z,33
2024-01-12T11:25:53.516Z,39
2024-01-12T11:27:02.668Z,39
2024-01-12T11:28:11.834Z,39
2024-01-12T11:29:21.056Z,45
2024-01-12T11:30:30.203Z,45
2024-01-12T11:31:38.220Z,39
2024-01-12T11:32:47.618Z,33
2024-01-12T11:33:56.662Z,33
2024-01-12T11:35:05.883Z,33
2024-01-12T11:36:15.000Z,28
2024-01-12T11:37:24.393Z,28
2024-01-12T11:38:33.423Z,28
2024-01-12T11:39:42.441Z,28
2024-01-12T11:40:51.640Z,33
2024-01-12T11:42:00.769Z,28
2024-01-12T11:43:10.149Z,28
2024-01-12T11:44:19.365Z,28
2024-01-12T11:45:28.384Z,33
2024-01-12T11:46:36.793Z,33
2024-01-12T11:47:45.576Z,33
2024-01-12T11:48:54.757Z,39
2024-01-12T11:50:04.162Z,39
2024-01-12T11:51:13.469Z,45
2024-01-12T11:52:22.604Z,45
2024-01-12T11:53:31.731Z,50
2024-01-12T11:54:40.796Z,50
2024-01-12T11:55:49.973Z,50
2024-01-12T11:56:59.338Z,50
2024-01-12T11:58:08.423Z,50
2024-01-12T11:59:17.648Z,45
2024-01-12T12:00:26.775Z,45
2024-01-12T12:01:35.028Z,39
2024-01-12T12:02:44.100Z,33
2024-01-12T12:03:53.353Z,28
2024-01-12T12:05:02.408Z,28
2024-01-12T12:06:11.507Z,28
2024-01-12T12:07:20.545Z,33
2024-01-12T12:08:30.029Z,33
2024-01-12T12:09:39.239Z,33
2024-01-12T12:10:48.045Z,39
2024-01-12T12:11:57.328Z,45
2024-01-12T12:13:06.684Z,45
2024-01-12T12:14:15.858Z,45
2024-01-12T12:15:24.980Z,45
2024-01-12T12:16:33.008Z,50
2024-01-12T12:17:42.303Z,50
2024-01-12T12:18:51.402Z,50
2024-01-12T12:20:00.545Z,50
2024-01-12T12:21:09.839Z,50
2024-01-12T12:22:19.050Z,50
2024-01-12T12:23:28.306Z,56
2024-01-12T12:24:38.084Z,67
2024-01-12T12:25:46.431Z,73
2024-01-12T12:26:55.521Z,73
2024-01-12T12:28:04.666Z,78
2024-01-12T12:29:13.995Z,84
2024-01-12T12:30:23.015Z,78
2024-01-12T12:31:31.261Z,73
2024-01-12T12:32:40.372Z,73
2024-01-12T12:33:49.767Z,73
2024-01-12T12:34:58.738Z,67
2024-01-12T12:36:08.197Z,73
2024-01-12T12:37:17.194Z,73
2024-01-12T12:38:26.482Z,73
2024-01-12T12:39:35.722Z,73
2024-01-12T12:40:44.887Z,73
2024-01-12T12:41:53.773Z,67
2024-01-12T12:43:03.156Z,67
2024-01-12T12:44:12.326Z,67
2024-01-12T12:45:21.371Z,61
2024-01-12T12:46:29.687Z,56
2024-01-12T12:47:38.876Z,56
2024-01-12T12:48:48.229Z,61
2024-01-12T12:49:57.163Z,67
2024-01-12T12:51:06.499Z,67
2024-01-12T12:52:15.339Z,67
2024-01-12T12:53:24.514Z,61
2024-01-12T12:54:33.800Z,61
2024-01-12T12:55:43.152Z,61
2024-01-12T12:56:52.256Z,61
2024-01-12T12:58:01.212Z,67
2024-01-12T12:59:10.386Z,78
2024-01-12T13:00:19.900Z,73
2024-01-12T13:01:28.185Z,61
2024-01-12T13:02:37.107Z,50
2024-01-12T13:03:46.325Z,45
2024-01-12T13:04:55.539Z,39
2024-01-12T13:06:04.574Z,45
2024-01-12T13:07:13.902Z,39
2024-01-12T13:08:23.056Z,39
2024-01-12T13:09:32.243Z,45
2024-01-12T13:10:41.516Z,50
2024-01-12T13:11:50.545Z,50
2024-01-12T13:12:59.802Z,50
2024-01-12T13:14:08.908Z,61
2024-01-12T13:15:18.030Z,61
2024-01-12T13:16:26.344Z,56
2024-01-12T13:17:35.338Z,61
2024-01-12T13:18:44.511Z,56
2024-01-12T13:19:53.519Z,50
2024-01-12T13:21:02.750Z,50
2024-01-12T13:22:12.140Z,50
2024-01-12T13:23:21.310Z,45
2024-01-12T13:24:30.380Z,45
2024-01-12T13:25:39.567Z,45
2024-01-12T13:26:49.024Z,45
2024-01-12T13:27:58.002Z,39
2024-01-12T13:29:07.084Z,45
2024-01-12T13:30:16.328Z,39
2024-01-12T13:31:24.422Z,39
2024-01-12T13:32:33.738Z,45
2024-01-12T13:33:42.882Z,45
2024-01-12T13:34:52.038Z,45
2024-01-12T13:36:01.240Z,45
2024-01-12T13:37:10.127Z,39
2024-01-12T13:38:18.620Z,39
2024-01-12T13:39:27.732Z,39
2024-01-12T13:40:36.805Z,33
2024-01-12T13:41:46.113Z,33
2024-01-12T13:42:55.277Z,33
2024-01-12T13:44:04.195Z,33
2024-01-12T13:45:13.559Z,33
2024-01-12T13:46:22.794Z,33
2024-01-12T13:47:32.074Z,33
2024-01-12T13:48:41.174Z,28
2024-01-12T13:49:50.146Z,33
2024-01-12T13:50:59.404Z,33
2024-01-12T13:52:08.757Z,28
2024-01-12T13:53:16.820Z,28
2024-01-12T13:54:25.975Z,28
2024-01-12T13:55:35.176Z,28
2024-01-12T13:56:44.434Z,33
2024-01-12T13:57:53.547Z,33
2024-01-12T13:59:02.812Z,33
2024-01-12T14:00:11.635Z,33
2024-01-12T14:01:21.070Z,28
2024-01-12T14:02:30.172Z,33
2024-01-12T14:03:39.407Z,33
2024-01-12T14:04:48.623Z,28
2024-01-12T14:05:57.783Z,28
2024-01-12T14:07:07.011Z,28
2024-01-12T14:08:15.172Z,28
2024-01-12T14:09:24.178Z,28
2024-01-12T14:10:33.506Z,33
2024-01-12T14:11:42.689Z,33
2024-01-12T14:12:51.941Z,33
2024-01-12T14:14:01.089Z,39
2024-01-12T14:15:10.216Z,39
2024-01-12T14:16:19.413Z,33
2024-01-12T14:17:28.249Z,39
2024-01-12T14:18:37.751Z,39
2024-01-12T14:19:46.742Z,39
2024-01-12T14:20:55.972Z,39
2024-01-12T14:22:05.267Z,39
2024-01-12T14:23:13.288Z,39
2024-01-12T14:24:22.304Z,39
2024-01-12T14:25:31.802Z,39
2024-01-12T14:26:40.653Z,39
2024-01-12T14:27:49.849Z,39
2024-01-12T14:28:59.291Z,33
2024-01-12T14:30:08.170Z,28
2024-01-12T14:31:17.510Z,28
2024-01-12T14:32:26.789Z,28
2024-01-12T14:33:35.987Z,22
2024-01-12T14:34:44.853Z,22
2024-01-12T14:35:54.153Z,22
2024-01-12T14:37:03.494Z,22
2024-01-12T14:38:11.734Z,22
2024-01-12T14:39:20.883Z,22
2024-01-12T14:40:29.736Z,22
2024-01-12T14:41:39.251Z,22
2024-01-12T14:42:48.465Z,22
2024-01-12T14:43:57.449Z,22
2024-01-12T14:45:06.518Z,22
2024-01-12T14:46:15.702Z,22
2024-01-12T14:47:25.055Z,22
2024-01-12T14:48:34.066Z,22
2024-01-12T14:49:43.468Z,22
2024-01-12T14:50:52.475Z,22
2024-01-12T14:52:01.496Z,22
2024-01-12T14:53:09.704Z,16
2024-01-12T14:54:18.880Z,16
2024-01-12T14:55:28.015Z,16
2024-01-12T14:56:37.190Z,16
2024-01-12T14:57:46.365Z,16
2024-01-12T14:58:55.554Z,22
2024-01-12T15:00:04.718Z,16
2024-01-12T15:01:13.887Z,16
2024-01-12T15:02:23.063Z,16
2024-01-12T15:03:32.240Z,16
2024-01-12T15:04:41.394Z,11
2024-01-12T15:05:50.572Z,16
2024-01-12T15:06:59.752Z,16
2024-01-12T15:08:07.941Z,16
2024-01-12T15:09:17.106Z,11
2024-01-12T15:10:26.279Z,11
2024-01-12T15:11:35.457Z,11
2024-01-12T15:12:44.634Z,5
2024-01-12T15:13:53.799Z,5
2024-01-12T15:15:02.988Z,5
2024-01-12T15:16:12.148Z,5
2024-01-12T15:17:21.374Z,5
2024-01-12T15:18:30.502Z,5
2024-01-12T15:19:39.670Z,5
2024-01-12T15:20:48.829Z,5
2024-01-12T15:21:58.007Z,5
2024-01-12T15:23:06.211Z,5
2024-01-12T15:24:15.371Z,5
2024-01-12T15:25:24.562Z,5
2024-01-12T15:26:33.725Z,5
2024-01-12T15:27:42.927Z,0
2024-01-12T15:28:52.065Z,0
2024-01-12T15:30:01.246Z,0
2024-01-12T15:31:10.431Z,0
2024-01-12T15:32:19.588Z,0
2024-01-12T15:33:28.770Z,0
2024-01-12T15:34:37.942Z,0
2024-01-12T15:35:47.109Z,0
2024-01-12T15:36:56.285Z,0
2024-01-12T15:38:04.473Z,0
2024-01-12T15:39:13.642Z,0
2024-01-12T15:40:22.844Z,0
2024-01-12T15:41:31.995Z,0
2024-01-12T15:42:41.167Z,0
2024-01-12T15:43:50.337Z,0
2024-01-12T15:44:59.514Z,0
2024-01-12T15:46:08.687Z,0
2024-01-12T15:47:17.853Z,0
2024-01-12T15:48:27.034Z,0
2024-01-12T15:49:36.225Z,0
2024-01-12T15:50:45.371Z,0
2024-01-12T15:51:54.548Z,0
2024-01-12T15:53:02.748Z,0
2024-01-12T15:54:11.909Z,0
2024-01-12T15:55:21.097Z,0
2024-01-12T15:56:30.259Z,0
2024-01-12T15:57:39.438Z,0
2024-01-12T15:58:48.608Z,0
2024-01-12T15:59:57.781Z,0
2024-01-12T16:01:06.946Z,0
2024-01-12T16:02:16.119Z,0
2024-01-12T16:03:25.298Z,0
2024-01-12T16:04:34.466Z,0
2024-01-12T16:05:43.636Z,0
2024-01-12T16:06:52.823Z,0
2024-01-12T16:08:01.035Z,0
2024-01-12T16:09:10.185Z,0
2024-01-12T16:10:19.359Z,0
2024-01-12T16:11:28.536Z,0
2024-01-12T16:12:37.698Z,0
2024-01-12T16:13:46.872Z,0
2024-01-12T16:14:56.040Z,0
2024-01-12T16:16:05.216Z,0
2024-01-12T16:17:14.397Z,0
2024-01-12T16:18:23.566Z,0
2024-01-12T16:19:32.730Z,0
2024-01-12T16:20:41.909Z,0
2024-01-12T16:21:51.075Z,0
2024-01-12T16:22:59.297Z,0
2024-01-12T16:24:08.434Z,0
2024-01-12T16:25:17.626Z,0
2024-01-12T16:26:26.787Z,0
2024-01-12T16:27:35.957Z,0
2024-01-12T16:28:45.145Z,0
2024-01-12T16:29:54.313Z,0
2024-01-12T16:31:03.490Z,0
2024-01-12T16:32:12.660Z,0
2024-01-12T16:33:21.830Z,0
2024-01-12T16:34:31.009Z,0
2024-01-12T16:35:40.182Z,0
2024-01-12T16:36:49.349Z,0
2024-01-12T16:37:57.558Z,0
2024-01-12T16:39:06.716Z,0
2024-01-12T16:40:15.883Z,0
2024-01-12T16:41:25.064Z,0
2024-01-12T16:42:34.238Z,0
2024-01-12T16:43:43.394Z,0
2024-01-12T16:44:52.576Z,0
2024-01-12T16:46:01.745Z,0
2024-01-12T16:47:10.922Z,0
2024-01-12T16:48:20.108Z,0
2024-01-12T16:49:29.274Z,0